sensor_id;sensor_type;location;lat;lon;timestamp;P1;durP1;ratioP1;P2;durP2;ratioP2
76574;SDS011;65439;50.948;6.988;2022-12-10T00:01:16;35.15;;;18.10;;
76574;SDS011;65439;50.948;6.988;2022-12-10T00:03:43;40.80;;;21.35;;
76574;SDS011;65439;50.948;6.988;2022-12-10T00:06:16;37.78;;;18.20;;
76574;SDS011;65439;50.948;6.988;2022-12-10T00:08:43;45.15;;;20.95;;
76574;SDS011;65439;50.948;6.988;2022-12-10T00:11:09;36.25;;;19.40;;
76574;SDS011;65439;50.948;6.988;2022-12-10T00:13:36;31.17;;;18.65;;
76574;SDS011;65439;50.948;6.988;2022-12-10T00:16:07;40.28;;;18.65;;
76574;SDS011;65439;50.948;6.988;2022-12-10T00:18:34;41.10;;;21.02;;
76574;SDS011;65439;50.948;6.988;2022-12-10T00:21:07;35.10;;;18.20;;
76574;SDS011;65439;50.948;6.988;2022-12-10T00:23:34;35.75;;;19.52;;
76574;SDS011;65439;50.948;6.988;2022-12-10T00:26:04;39.03;;;18.83;;
76574;SDS011;65439;50.948;6.988;2022-12-10T00:28:32;44.25;;;20.20;;
76574;SDS011;65439;50.948;6.988;2022-12-10T00:31:05;37.53;;;20.20;;
76574;SDS011;65439;50.948;6.988;2022-12-10T00:33:33;39.08;;;19.77;;
76574;SDS011;65439;50.948;6.988;2022-12-10T00:36:02;41.42;;;18.83;;
76574;SDS011;65439;50.948;6.988;2022-12-10T00:38:33;39.88;;;19.60;;
76574;SDS011;65439;50.948;6.988;2022-12-10T00:40:58;37.85;;;19.25;;
76574;SDS011;65439;50.948;6.988;2022-12-10T00:43:24;34.50;;;18.23;;
76574;SDS011;65439;50.948;6.988;2022-12-10T00:45:49;37.38;;;20.48;;
76574;SDS011;65439;50.948;6.988;2022-12-10T00:48:15;31.83;;;17.37;;
76574;SDS011;65439;50.948;6.988;2022-12-10T00:50:40;43.03;;;20.53;;
76574;SDS011;65439;50.948;6.988;2022-12-10T00:53:05;42.43;;;20.10;;
76574;SDS011;65439;50.948;6.988;2022-12-10T00:55:31;37.70;;;19.88;;
76574;SDS011;65439;50.948;6.988;2022-12-10T00:57:56;44.23;;;20.30;;
76574;SDS011;65439;50.948;6.988;2022-12-10T01:00:21;41.30;;;21.37;;
76574;SDS011;65439;50.948;6.988;2022-12-10T01:02:47;41.53;;;18.10;;
76574;SDS011;65439;50.948;6.988;2022-12-10T01:05:12;39.60;;;21.00;;
76574;SDS011;65439;50.948;6.988;2022-12-10T01:07:37;41.43;;;19.40;;
76574;SDS011;65439;50.948;6.988;2022-12-10T01:10:03;34.67;;;19.27;;
76574;SDS011;65439;50.948;6.988;2022-12-10T01:12:29;38.00;;;20.90;;
76574;SDS011;65439;50.948;6.988;2022-12-10T01:14:54;38.53;;;18.57;;
76574;SDS011;65439;50.948;6.988;2022-12-10T01:17:19;27.73;;;15.93;;
76574;SDS011;65439;50.948;6.988;2022-12-10T01:19:46;36.53;;;17.75;;
76574;SDS011;65439;50.948;6.988;2022-12-10T01:22:11;28.83;;;15.93;;
76574;SDS011;65439;50.948;6.988;2022-12-10T01:24:37;30.40;;;15.83;;
76574;SDS011;65439;50.948;6.988;2022-12-10T01:27:02;30.17;;;15.80;;
76574;SDS011;65439;50.948;6.988;2022-12-10T01:29:27;37.33;;;17.23;;
76574;SDS011;65439;50.948;6.988;2022-12-10T01:31:54;32.13;;;16.40;;
76574;SDS011;65439;50.948;6.988;2022-12-10T01:36:48;32.47;;;15.17;;
76574;SDS011;65439;50.948;6.988;2022-12-10T01:39:16;40.10;;;18.38;;
76574;SDS011;65439;50.948;6.988;2022-12-10T01:41:50;35.78;;;16.83;;
76574;SDS011;65439;50.948;6.988;2022-12-10T01:46:43;34.03;;;17.37;;
76574;SDS011;65439;50.948;6.988;2022-12-10T01:51:36;34.70;;;16.27;;
76574;SDS011;65439;50.948;6.988;2022-12-10T01:54:04;28.30;;;15.35;;
76574;SDS011;65439;50.948;6.988;2022-12-10T01:56:35;34.15;;;17.70;;
76574;SDS011;65439;50.948;6.988;2022-12-10T01:59:01;37.35;;;16.90;;
76574;SDS011;65439;50.948;6.988;2022-12-10T02:09:38;32.15;;;14.75;;
76574;SDS011;65439;50.948;6.988;2022-12-10T02:17:19;30.45;;;15.85;;
76574;SDS011;65439;50.948;6.988;2022-12-10T02:22:38;33.33;;;16.55;;
76574;SDS011;65439;50.948;6.988;2022-12-10T02:25:06;28.73;;;14.40;;
76574;SDS011;65439;50.948;6.988;2022-12-10T02:27:35;36.53;;;17.63;;
76574;SDS011;65439;50.948;6.988;2022-12-10T02:30:05;36.97;;;16.30;;
76574;SDS011;65439;50.948;6.988;2022-12-10T02:32:32;35.80;;;16.27;;
76574;SDS011;65439;50.948;6.988;2022-12-10T02:35:00;32.65;;;16.00;;
76574;SDS011;65439;50.948;6.988;2022-12-10T02:37:31;37.03;;;14.75;;
76574;SDS011;65439;50.948;6.988;2022-12-10T02:40:02;29.20;;;14.50;;
76574;SDS011;65439;50.948;6.988;2022-12-10T02:42:31;29.98;;;16.73;;
76574;SDS011;65439;50.948;6.988;2022-12-10T02:44:58;29.55;;;13.95;;
76574;SDS011;65439;50.948;6.988;2022-12-10T02:47:25;30.67;;;15.75;;
76574;SDS011;65439;50.948;6.988;2022-12-10T02:49:50;32.53;;;15.07;;
76574;SDS011;65439;50.948;6.988;2022-12-10T02:52:18;30.67;;;17.10;;
76574;SDS011;65439;50.948;6.988;2022-12-10T02:54:45;30.80;;;14.68;;
76574;SDS011;65439;50.948;6.988;2022-12-10T03:02:12;30.27;;;15.18;;
76574;SDS011;65439;50.948;6.988;2022-12-10T03:04:59;35.50;;;16.50;;
76574;SDS011;65439;50.948;6.988;2022-12-10T03:07:48;36.10;;;18.35;;
76574;SDS011;65439;50.948;6.988;2022-12-10T03:12:59;40.72;;;19.08;;
76574;SDS011;65439;50.948;6.988;2022-12-10T03:15:25;35.75;;;16.73;;
76574;SDS011;65439;50.948;6.988;2022-12-10T03:17:52;35.38;;;16.30;;
76574;SDS011;65439;50.948;6.988;2022-12-10T03:20:18;33.83;;;16.08;;
76574;SDS011;65439;50.948;6.988;2022-12-10T03:22:44;33.10;;;16.92;;
76574;SDS011;65439;50.948;6.988;2022-12-10T03:25:11;31.70;;;17.00;;
76574;SDS011;65439;50.948;6.988;2022-12-10T03:27:39;28.88;;;16.40;;
76574;SDS011;65439;50.948;6.988;2022-12-10T03:30:05;33.17;;;17.45;;
76574;SDS011;65439;50.948;6.988;2022-12-10T03:32:31;34.72;;;18.02;;
76574;SDS011;65439;50.948;6.988;2022-12-10T03:34:57;36.95;;;17.38;;
76574;SDS011;65439;50.948;6.988;2022-12-10T03:37:23;29.35;;;14.00;;
76574;SDS011;65439;50.948;6.988;2022-12-10T03:39:49;36.53;;;18.35;;
76574;SDS011;65439;50.948;6.988;2022-12-10T03:42:14;33.85;;;17.55;;
76574;SDS011;65439;50.948;6.988;2022-12-10T03:44:40;32.42;;;15.57;;
76574;SDS011;65439;50.948;6.988;2022-12-10T03:47:07;37.97;;;19.23;;
76574;SDS011;65439;50.948;6.988;2022-12-10T03:49:33;38.65;;;18.23;;
76574;SDS011;65439;50.948;6.988;2022-12-10T03:51:59;35.00;;;18.70;;
76574;SDS011;65439;50.948;6.988;2022-12-10T03:54:24;34.63;;;18.73;;
76574;SDS011;65439;50.948;6.988;2022-12-10T03:56:49;32.40;;;16.55;;
76574;SDS011;65439;50.948;6.988;2022-12-10T03:59:15;32.43;;;16.97;;
76574;SDS011;65439;50.948;6.988;2022-12-10T04:01:40;29.88;;;16.13;;
76574;SDS011;65439;50.948;6.988;2022-12-10T04:04:06;31.20;;;15.63;;
76574;SDS011;65439;50.948;6.988;2022-12-10T04:06:32;29.77;;;16.10;;
76574;SDS011;65439;50.948;6.988;2022-12-10T04:08:57;28.93;;;15.37;;
76574;SDS011;65439;50.948;6.988;2022-12-10T04:11:22;30.77;;;15.65;;
76574;SDS011;65439;50.948;6.988;2022-12-10T04:13:48;30.50;;;16.25;;
76574;SDS011;65439;50.948;6.988;2022-12-10T04:16:33;32.78;;;16.08;;
76574;SDS011;65439;50.948;6.988;2022-12-10T04:19:17;36.13;;;17.77;;
76574;SDS011;65439;50.948;6.988;2022-12-10T04:21:43;34.20;;;16.60;;
76574;SDS011;65439;50.948;6.988;2022-12-10T04:24:28;31.42;;;14.93;;
76574;SDS011;65439;50.948;6.988;2022-12-10T04:27:16;35.70;;;17.75;;
76574;SDS011;65439;50.948;6.988;2022-12-10T04:29:44;35.00;;;15.27;;
76574;SDS011;65439;50.948;6.988;2022-12-10T04:32:09;30.77;;;15.25;;
76574;SDS011;65439;50.948;6.988;2022-12-10T04:34:35;36.63;;;16.35;;
76574;SDS011;65439;50.948;6.988;2022-12-10T04:37:00;34.58;;;17.52;;
76574;SDS011;65439;50.948;6.988;2022-12-10T04:39:27;37.15;;;16.58;;
76574;SDS011;65439;50.948;6.988;2022-12-10T04:41:52;32.67;;;12.60;;
76574;SDS011;65439;50.948;6.988;2022-12-10T04:44:17;42.13;;;19.83;;
76574;SDS011;65439;50.948;6.988;2022-12-10T04:46:43;40.58;;;17.52;;
76574;SDS011;65439;50.948;6.988;2022-12-10T04:49:09;34.15;;;15.50;;
76574;SDS011;65439;50.948;6.988;2022-12-10T04:51:35;38.08;;;17.02;;
76574;SDS011;65439;50.948;6.988;2022-12-10T04:54:00;36.50;;;15.67;;
76574;SDS011;65439;50.948;6.988;2022-12-10T04:56:25;39.90;;;17.25;;
76574;SDS011;65439;50.948;6.988;2022-12-10T04:58:51;47.97;;;21.52;;
76574;SDS011;65439;50.948;6.988;2022-12-10T05:01:17;38.55;;;18.20;;
76574;SDS011;65439;50.948;6.988;2022-12-10T05:03:43;36.58;;;17.08;;
76574;SDS011;65439;50.948;6.988;2022-12-10T05:06:10;39.65;;;16.67;;
76574;SDS011;65439;50.948;6.988;2022-12-10T05:08:38;39.00;;;17.67;;
76574;SDS011;65439;50.948;6.988;2022-12-10T05:11:05;37.47;;;17.48;;
76574;SDS011;65439;50.948;6.988;2022-12-10T05:13:35;38.63;;;16.63;;
76574;SDS011;65439;50.948;6.988;2022-12-10T05:16:01;35.75;;;17.90;;
76574;SDS011;65439;50.948;6.988;2022-12-10T05:18:27;33.53;;;15.95;;
76574;SDS011;65439;50.948;6.988;2022-12-10T05:20:52;38.57;;;16.83;;
76574;SDS011;65439;50.948;6.988;2022-12-10T05:23:18;35.17;;;16.60;;
76574;SDS011;65439;50.948;6.988;2022-12-10T05:26:02;34.80;;;16.20;;
76574;SDS011;65439;50.948;6.988;2022-12-10T05:28:30;39.25;;;18.27;;
76574;SDS011;65439;50.948;6.988;2022-12-10T05:30:57;40.90;;;19.75;;
76574;SDS011;65439;50.948;6.988;2022-12-10T05:33:22;43.15;;;19.10;;
76574;SDS011;65439;50.948;6.988;2022-12-10T05:35:52;45.20;;;19.27;;
76574;SDS011;65439;50.948;6.988;2022-12-10T05:38:20;45.22;;;17.52;;
76574;SDS011;65439;50.948;6.988;2022-12-10T05:40:45;40.97;;;17.73;;
76574;SDS011;65439;50.948;6.988;2022-12-10T05:43:11;34.75;;;18.05;;
76574;SDS011;65439;50.948;6.988;2022-12-10T05:45:36;35.10;;;16.23;;
76574;SDS011;65439;50.948;6.988;2022-12-10T05:48:01;37.27;;;17.13;;
76574;SDS011;65439;50.948;6.988;2022-12-10T05:50:26;39.30;;;20.63;;
76574;SDS011;65439;50.948;6.988;2022-12-10T05:52:52;38.23;;;17.57;;
76574;SDS011;65439;50.948;6.988;2022-12-10T05:55:17;17.48;;;12.40;;
76574;SDS011;65439;50.948;6.988;2022-12-10T05:57:43;45.08;;;19.52;;
76574;SDS011;65439;50.948;6.988;2022-12-10T06:00:08;45.40;;;17.47;;
76574;SDS011;65439;50.948;6.988;2022-12-10T06:02:35;40.67;;;16.38;;
76574;SDS011;65439;50.948;6.988;2022-12-10T06:05:00;19.98;;;11.73;;
76574;SDS011;65439;50.948;6.988;2022-12-10T06:07:25;44.20;;;18.13;;
76574;SDS011;65439;50.948;6.988;2022-12-10T06:09:51;33.50;;;16.90;;
76574;SDS011;65439;50.948;6.988;2022-12-10T06:12:16;39.50;;;16.83;;
76574;SDS011;65439;50.948;6.988;2022-12-10T06:14:41;39.03;;;19.48;;
76574;SDS011;65439;50.948;6.988;2022-12-10T06:17:07;36.17;;;18.08;;
76574;SDS011;65439;50.948;6.988;2022-12-10T06:19:32;39.08;;;14.93;;
76574;SDS011;65439;50.948;6.988;2022-12-10T06:21:58;43.88;;;18.70;;
76574;SDS011;65439;50.948;6.988;2022-12-10T06:24:23;44.10;;;17.55;;
76574;SDS011;65439;50.948;6.988;2022-12-10T06:26:49;40.28;;;18.30;;
76574;SDS011;65439;50.948;6.988;2022-12-10T06:29:14;38.75;;;19.42;;
76574;SDS011;65439;50.948;6.988;2022-12-10T06:31:39;32.03;;;16.53;;
76574;SDS011;65439;50.948;6.988;2022-12-10T06:34:05;43.25;;;18.60;;
76574;SDS011;65439;50.948;6.988;2022-12-10T06:36:30;34.80;;;16.20;;
76574;SDS011;65439;50.948;6.988;2022-12-10T06:38:55;48.50;;;20.55;;
76574;SDS011;65439;50.948;6.988;2022-12-10T06:41:21;43.42;;;18.77;;
76574;SDS011;65439;50.948;6.988;2022-12-10T06:43:46;32.22;;;16.88;;
76574;SDS011;65439;50.948;6.988;2022-12-10T06:46:14;33.50;;;14.98;;
76574;SDS011;65439;50.948;6.988;2022-12-10T06:48:41;42.17;;;17.73;;
76574;SDS011;65439;50.948;6.988;2022-12-10T06:51:07;35.33;;;16.40;;
76574;SDS011;65439;50.948;6.988;2022-12-10T06:53:33;41.40;;;20.33;;
76574;SDS011;65439;50.948;6.988;2022-12-10T06:56:00;36.10;;;16.45;;
76574;SDS011;65439;50.948;6.988;2022-12-10T06:58:29;25.30;;;10.63;;
76574;SDS011;65439;50.948;6.988;2022-12-10T07:00:54;29.48;;;14.63;;
76574;SDS011;65439;50.948;6.988;2022-12-10T07:03:27;39.50;;;19.15;;
76574;SDS011;65439;50.948;6.988;2022-12-10T07:05:52;41.13;;;17.60;;
76574;SDS011;65439;50.948;6.988;2022-12-10T07:08:18;40.13;;;17.83;;
76574;SDS011;65439;50.948;6.988;2022-12-10T07:10:44;44.42;;;17.83;;
76574;SDS011;65439;50.948;6.988;2022-12-10T07:13:09;40.03;;;16.88;;
76574;SDS011;65439;50.948;6.988;2022-12-10T07:15:34;40.80;;;18.10;;
76574;SDS011;65439;50.948;6.988;2022-12-10T07:18:00;40.60;;;17.43;;
76574;SDS011;65439;50.948;6.988;2022-12-10T07:20:25;40.17;;;18.20;;
76574;SDS011;65439;50.948;6.988;2022-12-10T07:22:50;33.07;;;16.67;;
76574;SDS011;65439;50.948;6.988;2022-12-10T07:25:16;41.77;;;17.97;;
76574;SDS011;65439;50.948;6.988;2022-12-10T07:27:41;45.80;;;20.23;;
76574;SDS011;65439;50.948;6.988;2022-12-10T07:30:06;41.07;;;17.57;;
76574;SDS011;65439;50.948;6.988;2022-12-10T07:32:32;33.08;;;16.25;;
76574;SDS011;65439;50.948;6.988;2022-12-10T07:34:58;39.93;;;18.03;;
76574;SDS011;65439;50.948;6.988;2022-12-10T07:37:23;36.33;;;17.67;;
76574;SDS011;65439;50.948;6.988;2022-12-10T07:39:48;40.05;;;18.83;;
76574;SDS011;65439;50.948;6.988;2022-12-10T07:42:14;40.37;;;19.67;;
76574;SDS011;65439;50.948;6.988;2022-12-10T07:44:39;37.90;;;18.90;;
76574;SDS011;65439;50.948;6.988;2022-12-10T07:47:04;35.10;;;17.77;;
76574;SDS011;65439;50.948;6.988;2022-12-10T07:49:29;41.37;;;17.80;;
76574;SDS011;65439;50.948;6.988;2022-12-10T07:51:55;33.27;;;16.13;;
76574;SDS011;65439;50.948;6.988;2022-12-10T07:54:20;36.23;;;16.10;;
76574;SDS011;65439;50.948;6.988;2022-12-10T07:56:45;33.75;;;17.17;;
76574;SDS011;65439;50.948;6.988;2022-12-10T07:59:11;36.53;;;16.70;;
76574;SDS011;65439;50.948;6.988;2022-12-10T08:01:36;38.42;;;16.52;;
76574;SDS011;65439;50.948;6.988;2022-12-10T08:04:01;31.93;;;16.73;;
76574;SDS011;65439;50.948;6.988;2022-12-10T08:06:27;33.75;;;17.40;;
76574;SDS011;65439;50.948;6.988;2022-12-10T08:08:53;34.83;;;16.60;;
76574;SDS011;65439;50.948;6.988;2022-12-10T08:11:20;35.00;;;17.77;;
76574;SDS011;65439;50.948;6.988;2022-12-10T08:13:46;30.10;;;16.10;;
76574;SDS011;65439;50.948;6.988;2022-12-10T08:16:13;36.22;;;18.10;;
76574;SDS011;65439;50.948;6.988;2022-12-10T08:18:40;30.77;;;16.88;;
76574;SDS011;65439;50.948;6.988;2022-12-10T08:21:07;29.17;;;14.85;;
76574;SDS011;65439;50.948;6.988;2022-12-10T08:23:34;33.00;;;17.73;;
76574;SDS011;65439;50.948;6.988;2022-12-10T08:26:06;31.40;;;16.27;;
76574;SDS011;65439;50.948;6.988;2022-12-10T08:28:33;30.70;;;15.90;;
76574;SDS011;65439;50.948;6.988;2022-12-10T08:30:58;36.97;;;17.70;;
76574;SDS011;65439;50.948;6.988;2022-12-10T08:33:24;33.03;;;16.30;;
76574;SDS011;65439;50.948;6.988;2022-12-10T08:35:49;35.50;;;17.10;;
76574;SDS011;65439;50.948;6.988;2022-12-10T08:38:14;37.15;;;18.10;;
76574;SDS011;65439;50.948;6.988;2022-12-10T08:40:40;36.60;;;15.93;;
76574;SDS011;65439;50.948;6.988;2022-12-10T08:43:06;39.20;;;18.08;;
76574;SDS011;65439;50.948;6.988;2022-12-10T08:45:31;33.38;;;16.38;;
76574;SDS011;65439;50.948;6.988;2022-12-10T08:47:57;35.00;;;17.83;;
76574;SDS011;65439;50.948;6.988;2022-12-10T08:50:22;34.22;;;18.00;;
76574;SDS011;65439;50.948;6.988;2022-12-10T08:52:48;38.20;;;16.40;;
76574;SDS011;65439;50.948;6.988;2022-12-10T08:55:13;35.00;;;17.03;;
76574;SDS011;65439;50.948;6.988;2022-12-10T08:57:38;31.40;;;15.47;;
76574;SDS011;65439;50.948;6.988;2022-12-10T09:00:04;32.53;;;17.33;;
76574;SDS011;65439;50.948;6.988;2022-12-10T09:02:31;34.55;;;16.17;;
76574;SDS011;65439;50.948;6.988;2022-12-10T09:04:56;32.77;;;16.37;;
76574;SDS011;65439;50.948;6.988;2022-12-10T09:07:21;29.60;;;16.27;;
76574;SDS011;65439;50.948;6.988;2022-12-10T09:09:47;34.03;;;17.77;;
76574;SDS011;65439;50.948;6.988;2022-12-10T09:12:12;36.17;;;18.95;;
76574;SDS011;65439;50.948;6.988;2022-12-10T09:14:38;39.08;;;19.58;;
76574;SDS011;65439;50.948;6.988;2022-12-10T09:17:05;35.35;;;18.70;;
76574;SDS011;65439;50.948;6.988;2022-12-10T09:19:31;30.15;;;16.00;;
76574;SDS011;65439;50.948;6.988;2022-12-10T09:21:56;35.03;;;17.17;;
76574;SDS011;65439;50.948;6.988;2022-12-10T09:24:21;39.63;;;19.38;;
76574;SDS011;65439;50.948;6.988;2022-12-10T09:26:47;42.07;;;19.13;;
76574;SDS011;65439;50.948;6.988;2022-12-10T09:29:12;43.87;;;19.57;;
76574;SDS011;65439;50.948;6.988;2022-12-10T09:31:38;35.75;;;18.17;;
76574;SDS011;65439;50.948;6.988;2022-12-10T09:34:03;37.03;;;18.98;;
76574;SDS011;65439;50.948;6.988;2022-12-10T09:36:29;55.73;;;24.70;;
76574;SDS011;65439;50.948;6.988;2022-12-10T09:38:54;62.85;;;28.30;;
76574;SDS011;65439;50.948;6.988;2022-12-10T09:41:27;63.75;;;27.73;;
76574;SDS011;65439;50.948;6.988;2022-12-10T09:44:03;62.05;;;25.75;;
76574;SDS011;65439;50.948;6.988;2022-12-10T09:51:48;60.33;;;24.63;;
76574;SDS011;65439;50.948;6.988;2022-12-10T09:56:58;62.33;;;25.60;;
76574;SDS011;65439;50.948;6.988;2022-12-10T10:04:51;76.60;;;31.25;;
76574;SDS011;65439;50.948;6.988;2022-12-10T10:07:21;79.00;;;33.30;;
76574;SDS011;65439;50.948;6.988;2022-12-10T10:09:49;76.47;;;29.92;;
76574;SDS011;65439;50.948;6.988;2022-12-10T10:12:15;79.45;;;32.03;;
76574;SDS011;65439;50.948;6.988;2022-12-10T10:14:42;73.50;;;29.08;;
76574;SDS011;65439;50.948;6.988;2022-12-10T10:17:14;76.25;;;33.83;;
76574;SDS011;65439;50.948;6.988;2022-12-10T10:19:43;78.88;;;32.17;;
76574;SDS011;65439;50.948;6.988;2022-12-10T10:22:09;75.47;;;31.52;;
76574;SDS011;65439;50.948;6.988;2022-12-10T10:24:36;76.78;;;31.77;;
76574;SDS011;65439;50.948;6.988;2022-12-10T10:27:14;82.78;;;35.10;;
76574;SDS011;65439;50.948;6.988;2022-12-10T10:29:44;71.32;;;30.00;;
76574;SDS011;65439;50.948;6.988;2022-12-10T10:32:18;66.70;;;27.52;;
76574;SDS011;65439;50.948;6.988;2022-12-10T10:34:55;78.40;;;31.83;;
76574;SDS011;65439;50.948;6.988;2022-12-10T10:39:54;75.55;;;29.70;;
76574;SDS011;65439;50.948;6.988;2022-12-10T10:44:51;71.82;;;29.60;;
76574;SDS011;65439;50.948;6.988;2022-12-10T10:47:23;70.13;;;31.10;;
76574;SDS011;65439;50.948;6.988;2022-12-10T10:49:51;85.72;;;37.30;;
76574;SDS011;65439;50.948;6.988;2022-12-10T10:52:17;69.32;;;27.48;;
76574;SDS011;65439;50.948;6.988;2022-12-10T10:54:43;76.78;;;28.85;;
76574;SDS011;65439;50.948;6.988;2022-12-10T10:57:11;70.28;;;31.77;;
76574;SDS011;65439;50.948;6.988;2022-12-10T10:59:39;65.78;;;26.83;;
76574;SDS011;65439;50.948;6.988;2022-12-10T11:02:22;66.30;;;26.02;;
76574;SDS011;65439;50.948;6.988;2022-12-10T11:04:51;68.53;;;28.23;;
76574;SDS011;65439;50.948;6.988;2022-12-10T11:07:23;72.35;;;29.73;;
76574;SDS011;65439;50.948;6.988;2022-12-10T11:09:52;65.82;;;26.58;;
76574;SDS011;65439;50.948;6.988;2022-12-10T11:17:48;65.00;;;29.83;;
76574;SDS011;65439;50.948;6.988;2022-12-10T11:20:22;63.05;;;27.95;;
76574;SDS011;65439;50.948;6.988;2022-12-10T11:22:59;60.65;;;26.52;;
76574;SDS011;65439;50.948;6.988;2022-12-10T11:25:29;66.07;;;27.77;;
76574;SDS011;65439;50.948;6.988;2022-12-10T11:28:03;69.75;;;27.05;;
76574;SDS011;65439;50.948;6.988;2022-12-10T11:30:40;66.53;;;28.48;;
76574;SDS011;65439;50.948;6.988;2022-12-10T11:33:21;64.32;;;28.65;;
76574;SDS011;65439;50.948;6.988;2022-12-10T11:49:20;59.42;;;25.25;;
76574;SDS011;65439;50.948;6.988;2022-12-10T12:00:00;50.95;;;22.58;;
76574;SDS011;65439;50.948;6.988;2022-12-10T12:02:30;56.95;;;26.58;;
76574;SDS011;65439;50.948;6.988;2022-12-10T12:05:12;56.72;;;24.30;;
76574;SDS011;65439;50.948;6.988;2022-12-10T12:13:18;54.40;;;22.00;;
76574;SDS011;65439;50.948;6.988;2022-12-10T12:15:50;48.80;;;22.13;;
76574;SDS011;65439;50.948;6.988;2022-12-10T12:20:57;54.85;;;21.88;;
76574;SDS011;65439;50.948;6.988;2022-12-10T12:23:26;45.65;;;20.05;;
76574;SDS011;65439;50.948;6.988;2022-12-10T12:26:02;46.83;;;20.52;;
76574;SDS011;65439;50.948;6.988;2022-12-10T12:28:32;46.58;;;22.67;;
76574;SDS011;65439;50.948;6.988;2022-12-10T12:31:01;57.97;;;23.60;;
76574;SDS011;65439;50.948;6.988;2022-12-10T12:33:50;52.58;;;23.60;;
76574;SDS011;65439;50.948;6.988;2022-12-10T12:36:22;45.97;;;21.15;;
76574;SDS011;65439;50.948;6.988;2022-12-10T12:38:54;46.65;;;23.10;;
76574;SDS011;65439;50.948;6.988;2022-12-10T12:44:39;49.10;;;21.70;;
76574;SDS011;65439;50.948;6.988;2022-12-10T12:49:56;52.50;;;22.30;;
76574;SDS011;65439;50.948;6.988;2022-12-10T12:52:40;51.22;;;20.67;;
76574;SDS011;65439;50.948;6.988;2022-12-10T12:55:19;45.58;;;20.17;;
76574;SDS011;65439;50.948;6.988;2022-12-10T12:57:53;46.70;;;20.08;;
76574;SDS011;65439;50.948;6.988;2022-12-10T13:00:34;46.05;;;20.17;;
76574;SDS011;65439;50.948;6.988;2022-12-10T13:11:37;45.13;;;20.33;;
76574;SDS011;65439;50.948;6.988;2022-12-10T13:27:02;49.50;;;21.23;;
76574;SDS011;65439;50.948;6.988;2022-12-10T13:29:28;36.75;;;18.35;;
76574;SDS011;65439;50.948;6.988;2022-12-10T13:32:01;47.50;;;23.33;;
76574;SDS011;65439;50.948;6.988;2022-12-10T13:39:33;32.30;;;14.55;;
76574;SDS011;65439;50.948;6.988;2022-12-10T13:45:16;44.60;;;22.60;;
76574;SDS011;65439;50.948;6.988;2022-12-10T13:47:53;41.92;;;20.63;;
76574;SDS011;65439;50.948;6.988;2022-12-10T13:53:01;54.95;;;22.52;;
76574;SDS011;65439;50.948;6.988;2022-12-10T14:01:12;52.28;;;23.33;;
76574;SDS011;65439;50.948;6.988;2022-12-10T14:03:48;47.20;;;23.45;;
76574;SDS011;65439;50.948;6.988;2022-12-10T14:06:21;50.88;;;22.98;;
76574;SDS011;65439;50.948;6.988;2022-12-10T14:11:18;39.72;;;19.30;;
76574;SDS011;65439;50.948;6.988;2022-12-10T14:13:47;51.28;;;22.15;;
76574;SDS011;65439;50.948;6.988;2022-12-10T14:16:16;43.92;;;19.73;;
76574;SDS011;65439;50.948;6.988;2022-12-10T14:18:45;43.33;;;22.98;;
76574;SDS011;65439;50.948;6.988;2022-12-10T14:21:17;46.25;;;22.08;;
76574;SDS011;65439;50.948;6.988;2022-12-10T14:23:44;49.55;;;20.90;;
76574;SDS011;65439;50.948;6.988;2022-12-10T14:26:11;49.85;;;22.65;;
76574;SDS011;65439;50.948;6.988;2022-12-10T14:29:08;50.30;;;23.52;;
76574;SDS011;65439;50.948;6.988;2022-12-10T14:34:03;57.72;;;22.85;;
76574;SDS011;65439;50.948;6.988;2022-12-10T14:36:31;48.83;;;22.08;;
76574;SDS011;65439;50.948;6.988;2022-12-10T14:38:58;47.10;;;21.80;;
76574;SDS011;65439;50.948;6.988;2022-12-10T14:41:24;55.40;;;22.23;;
76574;SDS011;65439;50.948;6.988;2022-12-10T14:43:51;56.85;;;24.13;;
76574;SDS011;65439;50.948;6.988;2022-12-10T14:46:18;46.35;;;21.77;;
76574;SDS011;65439;50.948;6.988;2022-12-10T14:48:48;61.28;;;27.35;;
76574;SDS011;65439;50.948;6.988;2022-12-10T14:51:15;48.22;;;23.67;;
76574;SDS011;65439;50.948;6.988;2022-12-10T14:53:44;53.90;;;24.60;;
76574;SDS011;65439;50.948;6.988;2022-12-10T14:56:13;58.50;;;25.98;;
76574;SDS011;65439;50.948;6.988;2022-12-10T14:58:53;55.05;;;25.10;;
76574;SDS011;65439;50.948;6.988;2022-12-10T15:01:29;54.75;;;24.33;;
76574;SDS011;65439;50.948;6.988;2022-12-10T15:03:56;56.40;;;25.88;;
76574;SDS011;65439;50.948;6.988;2022-12-10T15:06:24;59.25;;;25.10;;
76574;SDS011;65439;50.948;6.988;2022-12-10T15:08:49;56.55;;;24.55;;
76574;SDS011;65439;50.948;6.988;2022-12-10T15:11:21;53.85;;;23.83;;
76574;SDS011;65439;50.948;6.988;2022-12-10T15:13:49;46.73;;;23.53;;
76574;SDS011;65439;50.948;6.988;2022-12-10T15:16:19;55.17;;;24.02;;
76574;SDS011;65439;50.948;6.988;2022-12-10T15:19:09;50.33;;;26.88;;
76574;SDS011;65439;50.948;6.988;2022-12-10T15:21:43;56.53;;;26.38;;
76574;SDS011;65439;50.948;6.988;2022-12-10T15:24:51;56.85;;;24.85;;
76574;SDS011;65439;50.948;6.988;2022-12-10T15:27:01;53.35;;;24.75;;
76574;SDS011;65439;50.948;6.988;2022-12-10T15:31:59;57.75;;;24.75;;
76574;SDS011;65439;50.948;6.988;2022-12-10T15:34:44;51.55;;;23.42;;
76574;SDS011;65439;50.948;6.988;2022-12-10T15:37:14;58.38;;;26.48;;
76574;SDS011;65439;50.948;6.988;2022-12-10T15:40:07;58.10;;;24.27;;
76574;SDS011;65439;50.948;6.988;2022-12-10T15:42:51;52.42;;;23.90;;
76574;SDS011;65439;50.948;6.988;2022-12-10T15:47:44;58.78;;;24.85;;
76574;SDS011;65439;50.948;6.988;2022-12-10T15:50:10;51.95;;;24.10;;
76574;SDS011;65439;50.948;6.988;2022-12-10T15:52:36;53.83;;;25.08;;
76574;SDS011;65439;50.948;6.988;2022-12-10T15:55:04;52.28;;;23.80;;
76574;SDS011;65439;50.948;6.988;2022-12-10T15:57:31;51.38;;;24.02;;
76574;SDS011;65439;50.948;6.988;2022-12-10T16:00:03;51.83;;;23.35;;
76574;SDS011;65439;50.948;6.988;2022-12-10T16:04:58;53.47;;;23.35;;
76574;SDS011;65439;50.948;6.988;2022-12-10T16:07:23;51.97;;;24.10;;
76574;SDS011;65439;50.948;6.988;2022-12-10T16:09:49;47.33;;;23.10;;
76574;SDS011;65439;50.948;6.988;2022-12-10T16:12:15;51.92;;;22.65;;
76574;SDS011;65439;50.948;6.988;2022-12-10T16:14:43;53.22;;;21.77;;
76574;SDS011;65439;50.948;6.988;2022-12-10T16:17:13;54.00;;;24.20;;
76574;SDS011;65439;50.948;6.988;2022-12-10T16:19:39;52.88;;;23.40;;
76574;SDS011;65439;50.948;6.988;2022-12-10T16:22:04;52.87;;;23.90;;
76574;SDS011;65439;50.948;6.988;2022-12-10T16:24:31;48.78;;;23.58;;
76574;SDS011;65439;50.948;6.988;2022-12-10T16:26:56;49.65;;;21.45;;
76574;SDS011;65439;50.948;6.988;2022-12-10T16:29:21;44.40;;;22.77;;
76574;SDS011;65439;50.948;6.988;2022-12-10T16:31:48;46.85;;;22.15;;
76574;SDS011;65439;50.948;6.988;2022-12-10T16:34:13;44.13;;;21.43;;
76574;SDS011;65439;50.948;6.988;2022-12-10T16:36:38;47.00;;;22.23;;
76574;SDS011;65439;50.948;6.988;2022-12-10T16:39:04;42.53;;;22.75;;
76574;SDS011;65439;50.948;6.988;2022-12-10T16:41:30;45.35;;;20.20;;
76574;SDS011;65439;50.948;6.988;2022-12-10T16:43:55;45.58;;;22.48;;
76574;SDS011;65439;50.948;6.988;2022-12-10T16:46:21;42.20;;;20.52;;
76574;SDS011;65439;50.948;6.988;2022-12-10T16:48:46;44.40;;;20.17;;